sensor_id;sensor_type;location;lat;lon;timestamp;pressure;altitude;pressure_sealevel;temperature;humidity
11710;BME280;5911;51.036;6.972;2022-09-03T00:00:08;100333.63;;;21.60;42.87
11710;BME280;5911;51.036;6.972;2022-09-03T00:02:42;100317.50;;;21.47;42.72
11710;BME280;5911;51.036;6.972;2022-09-03T00:05:18;100331.97;;;21.52;42.69
11710;BME280;5911;51.036;6.972;2022-09-03T00:07:55;100335.47;;;21.53;42.96
11710;BME280;5911;51.036;6.972;2022-09-03T00:10:28;100330.31;;;21.51;43.38
11710;BME280;5911;51.036;6.972;2022-09-03T00:13:01;100325.34;;;21.48;43.15
11710;BME280;5911;51.036;6.972;2022-09-03T00:15:32;100310.03;;;21.35;43.34
11710;BME280;5911;51.036;6.972;2022-09-03T00:18:05;100328.03;;;21.48;42.96
11710;BME280;5911;51.036;6.972;2022-09-03T00:20:38;100331.34;;;21.50;43.00
11710;BME280;5911;51.036;6.972;2022-09-03T00:23:09;100329.88;;;21.48;43.04
11710;BME280;5911;51.036;6.972;2022-09-03T00:25:43;100326.38;;;21.47;43.27
11710;BME280;5911;51.036;6.972;2022-09-03T00:28:16;100329.44;;;21.44;43.12
11710;BME280;5911;51.036;6.972;2022-09-03T00:30:49;100329.88;;;21.48;42.90
11710;BME280;5911;51.036;6.972;2022-09-03T00:33:26;100326.53;;;21.39;43.29
11710;BME280;5911;51.036;6.972;2022-09-03T00:36:05;100330.69;;;21.41;42.88
11710;BME280;5911;51.036;6.972;2022-09-03T00:38:37;100331.91;;;21.39;43.61
11710;BME280;5911;51.036;6.972;2022-09-03T00:41:13;100317.22;;;21.22;43.45
11710;BME280;5911;51.036;6.972;2022-09-03T00:43:56;100326.09;;;21.29;43.42
11710;BME280;5911;51.036;6.972;2022-09-03T00:46:36;100333.13;;;21.30;43.88
11710;BME280;5911;51.036;6.972;2022-09-03T00:49:24;100322.78;;;21.27;43.57
11710;BME280;5911;51.036;6.972;2022-09-03T00:52:01;100327.75;;;21.30;43.56
11710;BME280;5911;51.036;6.972;2022-09-03T00:54:37;100327.75;;;21.30;43.64
11710;BME280;5911;51.036;6.972;2022-09-03T00:57:18;100322.78;;;21.27;43.72
11710;BME280;5911;51.036;6.972;2022-09-03T00:59:58;100323.81;;;21.26;44.20
11710;BME280;5911;51.036;6.972;2022-09-03T01:02:39;100314.91;;;21.19;43.68
11710;BME280;5911;51.036;6.972;2022-09-03T01:05:22;100323.19;;;21.24;43.92
11710;BME280;5911;51.036;6.972;2022-09-03T01:08:03;100322.59;;;21.22;44.34
11710;BME280;5911;51.036;6.972;2022-09-03T01:10:41;100314.25;;;21.10;44.50
11710;BME280;5911;51.036;6.972;2022-09-03T01:13:19;100317.34;;;21.14;43.67
11710;BME280;5911;51.036;6.972;2022-09-03T01:16:00;100317.56;;;21.12;44.63
11710;BME280;5911;51.036;6.972;2022-09-03T01:18:35;100324.78;;;21.12;44.39
11710;BME280;5911;51.036;6.972;2022-09-03T01:21:20;100317.34;;;21.07;44.70
11710;BME280;5911;51.036;6.972;2022-09-03T01:27:15;100317.50;;;20.99;45.40
11710;BME280;5911;51.036;6.972;2022-09-03T01:29:51;100325.13;;;20.95;45.46
11710;BME280;5911;51.036;6.972;2022-09-03T01:32:27;100325.53;;;20.92;44.51
11710;BME280;5911;51.036;6.972;2022-09-03T01:35:02;100310.88;;;20.88;44.83
11710;BME280;5911;51.036;6.972;2022-09-03T01:37:38;100315.84;;;20.91;45.05
11710;BME280;5911;51.036;6.972;2022-09-03T01:40:17;100316.63;;;20.85;44.78
11710;BME280;5911;51.036;6.972;2022-09-03T01:42:56;100326.78;;;20.90;45.50
11710;BME280;5911;51.036;6.972;2022-09-03T01:45:35;100316.88;;;20.90;44.85
11710;BME280;5911;51.036;6.972;2022-09-03T01:48:31;100310.63;;;20.83;45.31
11710;BME280;5911;51.036;6.972;2022-09-03T01:51:07;100320.78;;;20.88;45.02
11710;BME280;5911;51.036;6.972;2022-09-03T01:53:55;100311.50;;;20.90;45.31
11710;BME280;5911;51.036;6.972;2022-09-03T01:56:32;100317.06;;;20.89;45.58
11710;BME280;5911;51.036;6.972;2022-09-03T01:59:08;100313.75;;;20.87;46.11
11710;BME280;5911;51.036;6.972;2022-09-03T02:01:44;100312.94;;;20.86;45.44
11710;BME280;5911;51.036;6.972;2022-09-03T02:04:16;100311.03;;;20.80;46.31
11710;BME280;5911;51.036;6.972;2022-09-03T02:06:47;100311.03;;;20.80;46.13
11710;BME280;5911;51.036;6.972;2022-09-03T02:09:15;100288.88;;;20.65;46.08
11710;BME280;5911;51.036;6.972;2022-09-03T02:11:48;100302.78;;;20.75;46.05
11710;BME280;5911;51.036;6.972;2022-09-03T02:14:19;100310.38;;;20.71;45.68
11710;BME280;5911;51.036;6.972;2022-09-03T02:16:48;100306.03;;;20.70;46.16
11710;BME280;5911;51.036;6.972;2022-09-03T02:19:17;100305.22;;;20.70;45.88
11710;BME280;5911;51.036;6.972;2022-09-03T02:21:47;100298.19;;;20.69;46.38
11710;BME280;5911;51.036;6.972;2022-09-03T02:24:17;100299.41;;;20.66;46.25
11710;BME280;5911;51.036;6.972;2022-09-03T02:26:45;100305.59;;;20.67;46.42
11710;BME280;5911;51.036;6.972;2022-09-03T02:29:14;100305.59;;;20.67;46.43
11710;BME280;5911;51.036;6.972;2022-09-03T02:31:42;100307.47;;;20.66;46.16
11710;BME280;5911;51.036;6.972;2022-09-03T02:34:12;100302.28;;;20.65;46.34
11710;BME280;5911;51.036;6.972;2022-09-03T02:36:42;100294.88;;;20.67;45.85
11710;BME280;5911;51.036;6.972;2022-09-03T02:39:11;100308.28;;;20.67;46.03
11710;BME280;5911;51.036;6.972;2022-09-03T02:41:39;100293.41;;;20.58;45.89
11710;BME280;5911;51.036;6.972;2022-09-03T02:44:11;100306.00;;;20.64;46.20
11710;BME280;5911;51.036;6.972;2022-09-03T02:46:43;100302.28;;;20.65;46.29
11710;BME280;5911;51.036;6.972;2022-09-03T02:49:15;100293.22;;;20.59;46.39
11710;BME280;5911;51.036;6.972;2022-09-03T02:51:43;100298.38;;;20.61;46.61
11710;BME280;5911;51.036;6.972;2022-09-03T02:54:11;100301.44;;;20.58;46.59
11710;BME280;5911;51.036;6.972;2022-09-03T02:56:46;100307.19;;;20.55;46.16
11710;BME280;5911;51.036;6.972;2022-09-03T02:59:15;100292.97;;;20.54;47.26
11710;BME280;5911;51.036;6.972;2022-09-03T03:01:43;100300.19;;;20.54;46.91
11710;BME280;5911;51.036;6.972;2022-09-03T03:04:12;100307.59;;;20.52;47.29
11710;BME280;5911;51.036;6.972;2022-09-03T03:06:41;100289.63;;;20.46;47.08
11710;BME280;5911;51.036;6.972;2022-09-03T03:09:13;100301.19;;;20.46;46.96
11710;BME280;5911;51.036;6.972;2022-09-03T03:11:41;100294.38;;;20.50;47.37
11710;BME280;5911;51.036;6.972;2022-09-03T03:14:09;100293.13;;;20.46;46.50
11710;BME280;5911;51.036;6.972;2022-09-03T03:16:37;100300.94;;;20.48;46.87
11710;BME280;5911;51.036;6.972;2022-09-03T03:19:05;100295.59;;;20.48;46.89
11710;BME280;5911;51.036;6.972;2022-09-03T03:21:32;100293.53;;;20.50;46.76
11710;BME280;5911;51.036;6.972;2022-09-03T03:24:02;100282.81;;;20.50;46.12
11710;BME280;5911;51.036;6.972;2022-09-03T03:26:30;100280.34;;;20.48;46.66
11710;BME280;5911;51.036;6.972;2022-09-03T03:28:59;100278.69;;;20.47;47.20
11710;BME280;5911;51.036;6.972;2022-09-03T03:31:30;100279.09;;;20.44;46.94
11710;BME280;5911;51.036;6.972;2022-09-03T03:34:00;100284.03;;;20.41;47.90
11710;BME280;5911;51.036;6.972;2022-09-03T03:36:30;100282.75;;;20.36;47.73
11710;BME280;5911;51.036;6.972;2022-09-03T03:38:59;100289.09;;;20.35;47.96
11710;BME280;5911;51.036;6.972;2022-09-03T03:41:30;100287.28;;;20.36;47.49
11710;BME280;5911;51.036;6.972;2022-09-03T03:44:00;100287.28;;;20.36;47.94
11710;BME280;5911;51.036;6.972;2022-09-03T03:46:29;100285.78;;;20.33;47.50
11710;BME280;5911;51.036;6.972;2022-09-03T03:48:58;100288.88;;;20.30;47.58
11710;BME280;5911;51.036;6.972;2022-09-03T03:51:26;100280.22;;;20.28;48.32
11710;BME280;5911;51.036;6.972;2022-09-03T03:53:55;100281.03;;;20.29;48.26
11710;BME280;5911;51.036;6.972;2022-09-03T03:56:30;100281.63;;;20.24;47.79
11710;BME280;5911;51.036;6.972;2022-09-03T03:58:58;100274.22;;;20.26;48.03
11710;BME280;5911;51.036;6.972;2022-09-03T04:01:27;100278.94;;;20.24;48.13
11710;BME280;5911;51.036;6.972;2022-09-03T04:03:56;100282.66;;;20.23;48.70
11710;BME280;5911;51.036;6.972;2022-09-03T04:06:24;100273.97;;;20.21;48.25
11710;BME280;5911;51.036;6.972;2022-09-03T04:08:52;100279.53;;;20.20;48.67
11710;BME280;5911;51.036;6.972;2022-09-03T04:11:22;100276.84;;;20.20;48.85
11710;BME280;5911;51.036;6.972;2022-09-03T04:13:52;100255.72;;;20.03;48.90
11710;BME280;5911;51.036;6.972;2022-09-03T04:16:21;100266.94;;;20.14;48.85
11710;BME280;5911;51.036;6.972;2022-09-03T04:18:50;100273.50;;;20.11;48.85
11710;BME280;5911;51.036;6.972;2022-09-03T04:21:20;100274.72;;;20.09;48.67
11710;BME280;5911;51.036;6.972;2022-09-03T04:23:49;100272.22;;;20.07;48.16
11710;BME280;5911;51.036;6.972;2022-09-03T04:26:19;100255.50;;;19.98;49.18
11710;BME280;5911;51.036;6.972;2022-09-03T04:28:48;100251.94;;;19.91;48.81
11710;BME280;5911;51.036;6.972;2022-09-03T04:31:18;100267.91;;;20.06;49.23
11710;BME280;5911;51.036;6.972;2022-09-03T04:33:47;100274.91;;;20.07;48.75
11710;BME280;5911;51.036;6.972;2022-09-03T04:36:18;100266.03;;;20.07;48.71
11710;BME280;5911;51.036;6.972;2022-09-03T04:38:48;100267.25;;;20.04;49.16
11710;BME280;5911;51.036;6.972;2022-09-03T04:41:18;100277.13;;;20.03;49.58
11710;BME280;5911;51.036;6.972;2022-09-03T04:43:47;100277.13;;;20.03;49.41
11710;BME280;5911;51.036;6.972;2022-09-03T04:46:19;100280.84;;;20.02;48.83
11710;BME280;5911;51.036;6.972;2022-09-03T04:48:49;100271.38;;;20.00;49.28
11710;BME280;5911;51.036;6.972;2022-09-03T04:51:19;100275.94;;;20.06;49.68
11710;BME280;5911;51.036;6.972;2022-09-03T04:53:52;100276.75;;;20.07;50.10
11710;BME280;5911;51.036;6.972;2022-09-03T04:56:22;100288.03;;;20.02;50.32
11710;BME280;5911;51.036;6.972;2022-09-03T04:58:54;100285.78;;;19.99;50.07
11710;BME280;5911;51.036;6.972;2022-09-03T05:01:25;100290.72;;;20.02;50.28
11710;BME280;5911;51.036;6.972;2022-09-03T05:03:54;100283.75;;;20.01;49.66
11710;BME280;5911;51.036;6.972;2022-09-03T05:06:23;100285.63;;;20.07;49.43
11710;BME280;5911;51.036;6.972;2022-09-03T05:08:53;100283.38;;;20.11;49.95
11710;BME280;5911;51.036;6.972;2022-09-03T05:11:21;100282.56;;;20.10;49.51
11710;BME280;5911;51.036;6.972;2022-09-03T05:13:51;100277.59;;;20.07;50.14
11710;BME280;5911;51.036;6.972;2022-09-03T05:16:20;100279.44;;;20.07;50.02
11710;BME280;5911;51.036;6.972;2022-09-03T05:18:52;100280.72;;;20.11;49.62
11710;BME280;5911;51.036;6.972;2022-09-03T05:21:21;100279.50;;;20.13;50.04
11710;BME280;5911;51.036;6.972;2022-09-03T05:23:50;100290.00;;;20.15;50.36
11710;BME280;5911;51.036;6.972;2022-09-03T05:26:23;100283.41;;;20.17;49.67
11710;BME280;5911;51.036;6.972;2022-09-03T05:28:53;100281.56;;;20.18;50.40
11710;BME280;5911;51.036;6.972;2022-09-03T05:31:23;100281.38;;;20.19;49.90
11710;BME280;5911;51.036;6.972;2022-09-03T05:33:55;100285.50;;;20.22;49.45
11710;BME280;5911;51.036;6.972;2022-09-03T05:36:26;100280.59;;;20.25;50.88
11710;BME280;5911;51.036;6.972;2022-09-03T05:38:54;100282.91;;;20.28;50.97
11710;BME280;5911;51.036;6.972;2022-09-03T05:41:25;100285.19;;;20.31;50.95
11710;BME280;5911;51.036;6.972;2022-09-03T05:43:54;100283.09;;;20.33;50.98
11710;BME280;5911;51.036;6.972;2022-09-03T05:46:27;100285.59;;;20.35;50.57
11710;BME280;5911;51.036;6.972;2022-09-03T05:48:59;100284.59;;;20.36;50.03
11710;BME280;5911;51.036;6.972;2022-09-03T05:51:28;100280.25;;;20.35;50.58
11710;BME280;5911;51.036;6.972;2022-09-03T05:53:57;100278.66;;;20.41;50.87
11710;BME280;5911;51.036;6.972;2022-09-03T05:56:27;100285.69;;;20.42;50.48
11710;BME280;5911;51.036;6.972;2022-09-03T05:58:57;100284.66;;;20.43;50.71
11710;BME280;5911;51.036;6.972;2022-09-03T06:01:29;100290.66;;;20.45;50.50
11710;BME280;5911;51.036;6.972;2022-09-03T06:04:03;100284.88;;;20.48;49.89
11710;BME280;5911;51.036;6.972;2022-09-03T06:06:33;100289.00;;;20.44;49.30
11710;BME280;5911;51.036;6.972;2022-09-03T06:09:03;100290.22;;;20.48;49.77
11710;BME280;5911;51.036;6.972;2022-09-03T06:11:33;100288.19;;;20.50;50.47
11710;BME280;5911;51.036;6.972;2022-09-03T06:14:03;100286.97;;;20.52;50.44
11710;BME280;5911;51.036;6.972;2022-09-03T06:16:35;100298.31;;;20.54;49.39
11710;BME280;5911;51.036;6.972;2022-09-03T06:19:06;100284.88;;;20.48;49.84
11710;BME280;5911;51.036;6.972;2022-09-03T06:21:35;100292.38;;;20.59;49.44
11710;BME280;5911;51.036;6.972;2022-09-03T06:24:08;100296.94;;;20.65;49.29
11710;BME280;5911;51.036;6.972;2022-09-03T06:26:38;100272.09;;;20.50;48.48
11710;BME280;5911;51.036;6.972;2022-09-03T06:29:12;100264.25;;;20.42;48.38
11710;BME280;5911;51.036;6.972;2022-09-03T06:31:40;100294.09;;;20.73;49.28
11710;BME280;5911;51.036;6.972;2022-09-03T06:34:09;100262.06;;;20.58;48.58
11710;BME280;5911;51.036;6.972;2022-09-03T06:36:38;100306.28;;;20.82;48.80
11710;BME280;5911;51.036;6.972;2022-09-03T06:39:11;100289.78;;;20.79;49.03
11710;BME280;5911;51.036;6.972;2022-09-03T06:41:41;100295.63;;;20.89;48.28
11710;BME280;5911;51.036;6.972;2022-09-03T06:44:10;100294.16;;;20.86;47.94
11710;BME280;5911;51.036;6.972;2022-09-03T06:46:39;100304.94;;;20.99;49.11
11710;BME280;5911;51.036;6.972;2022-09-03T06:49:16;100307.44;;;21.08;48.97
11710;BME280;5911;51.036;6.972;2022-09-03T06:51:45;100298.56;;;21.14;48.20
11710;BME280;5911;51.036;6.972;2022-09-03T06:54:13;100303.31;;;21.12;48.07
11710;BME280;5911;51.036;6.972;2022-09-03T06:56:41;100301.31;;;21.20;48.46
11710;BME280;5911;51.036;6.972;2022-09-03T06:59:13;100307.91;;;21.24;48.47
11710;BME280;5911;51.036;6.972;2022-09-03T07:01:41;100310.84;;;21.23;48.50
11710;BME280;5911;51.036;6.972;2022-09-03T07:04:14;100294.75;;;21.29;47.39
11710;BME280;5911;51.036;6.972;2022-09-03T07:06:48;100295.13;;;21.26;47.84
11710;BME280;5911;51.036;6.972;2022-09-03T07:09:16;100310.44;;;21.32;47.51
11710;BME280;5911;51.036;6.972;2022-09-03T07:11:45;100316.44;;;21.34;47.86
11710;BME280;5911;51.036;6.972;2022-09-03T07:14:19;100316.22;;;21.36;47.71
11710;BME280;5911;51.036;6.972;2022-09-03T07:16:48;100236.84;;;21.00;47.35
11710;BME280;5911;51.036;6.972;2022-09-03T07:19:20;100302.16;;;21.27;47.24
11710;BME280;5911;51.036;6.972;2022-09-03T07:21:48;100309.41;;;21.40;47.85
11710;BME280;5911;51.036;6.972;2022-09-03T07:24:17;100316.66;;;21.46;47.60
11710;BME280;5911;51.036;6.972;2022-09-03T07:26:47;100322.25;;;21.51;47.54
11710;BME280;5911;51.036;6.972;2022-09-03T07:29:15;100314.19;;;21.51;47.73
11710;BME280;5911;51.036;6.972;2022-09-03T07:31:46;100306.34;;;21.56;47.18
11710;BME280;5911;51.036;6.972;2022-09-03T07:34:17;100309.25;;;21.61;46.96
11710;BME280;5911;51.036;6.972;2022-09-03T07:36:49;100319.19;;;21.67;47.14
11710;BME280;5911;51.036;6.972;2022-09-03T07:39:18;100320.84;;;21.68;47.19
11710;BME280;5911;51.036;6.972;2022-09-03T07:41:46;100308.84;;;21.71;46.54
11710;BME280;5911;51.036;6.972;2022-09-03T07:44:16;100322.09;;;21.79;46.80
11710;BME280;5911;51.036;6.972;2022-09-03T07:46:46;100322.50;;;21.83;47.04
11710;BME280;5911;51.036;6.972;2022-09-03T07:49:17;100318.16;;;21.82;46.36
11710;BME280;5911;51.036;6.972;2022-09-03T07:51:46;100321.25;;;21.92;46.49
11710;BME280;5911;51.036;6.972;2022-09-03T07:54:17;100315.66;;;21.87;46.20
11710;BME280;5911;51.036;6.972;2022-09-03T07:56:45;100324.34;;;21.89;46.32
11710;BME280;5911;51.036;6.972;2022-09-03T07:59:14;100309.66;;;21.71;46.99
11710;BME280;5911;51.036;6.972;2022-09-03T08:01:41;100330.56;;;21.96;46.58
11710;BME280;5911;51.036;6.972;2022-09-03T08:04:09;100323.75;;;22.00;46.62
11710;BME280;5911;51.036;6.972;2022-09-03T08:06:38;100333.28;;;22.09;45.93
11710;BME280;5911;51.036;6.972;2022-09-03T08:09:07;100341.97;;;22.11;46.31
11710;BME280;5911;51.036;6.972;2022-09-03T08:11:39;100338.03;;;22.07;46.67
11710;BME280;5911;51.036;6.972;2022-09-03T08:14:10;100339.47;;;22.09;47.04
11710;BME280;5911;51.036;6.972;2022-09-03T08:16:39;100331.00;;;22.19;47.04
11710;BME280;5911;51.036;6.972;2022-09-03T08:19:09;100344.44;;;22.19;46.79
11710;BME280;5911;51.036;6.972;2022-09-03T08:21:37;100346.09;;;22.27;46.87
11710;BME280;5911;51.036;6.972;2022-09-03T08:24:07;100345.88;;;22.35;46.33
11710;BME280;5911;51.036;6.972;2022-09-03T08:26:40;100339.47;;;22.42;46.29
11710;BME280;5911;51.036;6.972;2022-09-03T08:29:16;100342.94;;;22.50;46.56
11710;BME280;5911;51.036;6.972;2022-09-03T08:31:44;100344.41;;;22.52;46.45
11710;BME280;5911;51.036;6.972;2022-09-03T08:34:12;100346.66;;;22.55;45.80
11710;BME280;5911;51.036;6.972;2022-09-03T08:36:40;100351.00;;;22.50;45.71
11710;BME280;5911;51.036;6.972;2022-09-03T08:39:09;100349.81;;;22.45;46.05
11710;BME280;5911;51.036;6.972;2022-09-03T08:44:34;100356.81;;;22.33;46.15
11710;BME280;5911;51.036;6.972;2022-09-03T08:47:09;100349.38;;;22.35;46.26
11710;BME280;5911;51.036;6.972;2022-09-03T08:49:44;100352.28;;;22.40;46.44
11710;BME280;5911;51.036;6.972;2022-09-03T08:52:22;100359.50;;;22.33;46.21
11710;BME280;5911;51.036;6.972;2022-09-03T08:54:54;100350.66;;;22.26;46.57
11710;BME280;5911;51.036;6.972;2022-09-03T08:57:25;100357.84;;;22.32;46.79
11710;BME280;5911;51.036;6.972;2022-09-03T08:59:54;100365.50;;;22.35;47.31
11710;BME280;5911;51.036;6.972;2022-09-03T09:02:32;100357.03;;;22.32;47.42
11710;BME280;5911;51.036;6.972;2022-09-03T09:05:08;100364.69;;;22.28;47.84
11710;BME280;5911;51.036;6.972;2022-09-03T09:07:44;100366.34;;;22.29;47.45
11710;BME280;5911;51.036;6.972;2022-09-03T09:10:23;100358.47;;;22.34;48.17
11710;BME280;5911;51.036;6.972;2022-09-03T09:13:04;100355.16;;;22.32;47.89
11710;BME280;5911;51.036;6.972;2022-09-03T09:15:41;100362.63;;;22.30;48.42
11710;BME280;5911;51.036;6.972;2022-09-03T09:18:18;100369.84;;;22.36;48.77
11710;BME280;5911;51.036;6.972;2022-09-03T09:20:53;100364.69;;;22.41;48.64
11710;BME280;5911;51.036;6.972;2022-09-03T09:23:27;100368.38;;;22.47;48.73
11710;BME280;5911;51.036;6.972;2022-09-03T09:25:58;100362.81;;;22.35;49.02
11710;BME280;5911;51.036;6.972;2022-09-03T09:28:32;100364.03;;;22.46;49.57
11710;BME280;5911;51.036;6.972;2022-09-03T09:31:03;100360.56;;;22.45;49.90
11710;BME280;5911;51.036;6.972;2022-09-03T09:33:31;100362.22;;;22.40;49.96
11710;BME280;5911;51.036;6.972;2022-09-03T09:36:02;100365.09;;;22.38;50.54
11710;BME280;5911;51.036;6.972;2022-09-03T09:38:36;100362.41;;;22.45;51.57
11710;BME280;5911;51.036;6.972;2022-09-03T09:41:08;100359.09;;;22.56;51.36
11710;BME280;5911;51.036;6.972;2022-09-03T09:43:38;100359.06;;;22.63;51.99
11710;BME280;5911;51.036;6.972;2022-09-03T09:46:08;100363.81;;;22.67;52.32
11710;BME280;5911;51.036;6.972;2022-09-03T09:48:46;100366.91;;;22.71;51.90
11710;BME280;5911;51.036;6.972;2022-09-03T09:51:19;100368.56;;;22.72;51.80
11710;BME280;5911;51.036;6.972;2022-09-03T09:53:59;100372.91;;;22.66;52.29
11710;BME280;5911;51.036;6.972;2022-09-03T09:56:28;100371.47;;;22.64;53.61
11710;BME280;5911;51.036;6.972;2022-09-03T09:59:04;100368.81;;;22.57;55.64
11710;BME280;5911;51.036;6.972;2022-09-03T10:01:33;100365.69;;;22.60;55.75
11710;BME280;5911;51.036;6.972;2022-09-03T10:04:07;100371.25;;;22.65;59.99
11710;BME280;5911;51.036;6.972;2022-09-03T10:06:36;100375.81;;;22.65;61.76
11710;BME280;5911;51.036;6.972;2022-09-03T10:09:25;100365.91;;;22.59;63.54
11710;BME280;5911;51.036;6.972;2022-09-03T10:12:05;100373.53;;;22.62;67.87
11710;BME280;5911;51.036;6.972;2022-09-03T10:14:41;100377.50;;;22.53;68.50
11710;BME280;5911;51.036;6.972;2022-09-03T10:17:17;100380.81;;;22.55;68.74
11710;BME280;5911;51.036;6.972;2022-09-03T10:19:57;100369.59;;;22.64;70.33
11710;BME280;5911;51.036;6.972;2022-09-03T10:22:48;100369.19;;;22.74;70.12
11710;BME280;5911;51.036;6.972;2022-09-03T10:25:25;100355.09;;;22.85;71.32
11710;BME280;5911;51.036;6.972;2022-09-03T10:27:54;100361.72;;;22.83;71.91
11710;BME280;5911;51.036;6.972;2022-09-03T10:30:27;100357.53;;;23.00;72.70
11710;BME280;5911;51.036;6.972;2022-09-03T10:33:04;100362.50;;;22.96;70.22
11710;BME280;5911;51.036;6.972;2022-09-03T10:35:42;100353.81;;;23.01;69.21
11710;BME280;5911;51.036;6.972;2022-09-03T10:38:17;100355.69;;;23.00;69.28
11710;BME280;5911;51.036;6.972;2022-09-03T10:40:51;100354.84;;;23.00;67.69
11710;BME280;5911;51.036;6.972;2022-09-03T10:46:20;100357.94;;;23.03;67.56
11710;BME280;5911;51.036;6.972;2022-09-03T10:49:09;100354.81;;;23.13;67.67
11710;BME280;5911;51.036;6.972;2022-09-03T10:51:47;100358.69;;;23.24;65.78
11710;BME280;5911;51.036;6.972;2022-09-03T10:54:31;100347.69;;;23.32;63.56
11710;BME280;5911;51.036;6.972;2022-09-03T10:57:09;100339.78;;;23.37;63.58
11710;BME280;5911;51.036;6.972;2022-09-03T10:59:49;100352.31;;;23.56;63.86
11710;BME280;5911;51.036;6.972;2022-09-03T11:02:42;100356.78;;;23.75;62.87
11710;BME280;5911;51.036;6.972;2022-09-03T11:05:16;100351.03;;;23.97;60.79
11710;BME280;5911;51.036;6.972;2022-09-03T11:07:49;100353.66;;;24.03;58.78
11710;BME280;5911;51.036;6.972;2022-09-03T11:10:21;100356.84;;;24.25;58.10
11710;BME280;5911;51.036;6.972;2022-09-03T11:13:02;100355.56;;;24.28;56.48
11710;BME280;5911;51.036;6.972;2022-09-03T11:15:36;100354.31;;;24.48;55.26
11710;BME280;5911;51.036;6.972;2022-09-03T11:18:15;100344.56;;;24.47;54.70
11710;BME280;5911;51.036;6.972;2022-09-03T11:20:48;100344.91;;;24.58;54.14
11710;BME280;5911;51.036;6.972;2022-09-03T11:23:18;100332.75;;;24.48;54.20
11710;BME280;5911;51.036;6.972;2022-09-03T11:25:51;100337.13;;;24.86;53.04
11710;BME280;5911;51.036;6.972;2022-09-03T11:28:27;100340.03;;;25.21;53.05
11710;BME280;5911;51.036;6.972;2022-09-03T11:31:08;100344.22;;;26.18;50.36
11710;BME280;5911;51.036;6.972;2022-09-03T11:33:44;100349.88;;;26.63;48.81
11710;BME280;5911;51.036;6.972;2022-09-03T11:36:22;100324.81;;;26.21;47.60
11710;BME280;5911;51.036;6.972;2022-09-03T11:38:53;100327.75;;;25.97;49.33
11710;BME280;5911;51.036;6.972;2022-09-03T11:41:25;100330.31;;;25.80;49.66
11710;BME280;5911;51.036;6.972;2022-09-03T11:43:54;100319.56;;;25.62;50.15
11710;BME280;5911;51.036;6.972;2022-09-03T11:46:29;100326.28;;;25.52;49.79
11710;BME280;5911;51.036;6.972;2022-09-03T11:49:10;100319.16;;;25.58;51.06
11710;BME280;5911;51.036;6.972;2022-09-03T11:51:39;100321.25;;;25.86;49.12
11710;BME280;5911;51.036;6.972;2022-09-03T11:54:24;100319.28;;;26.28;49.31
11710;BME280;5911;51.036;6.972;2022-09-03T11:57:06;100310.72;;;26.54;48.54
11710;BME280;5911;51.036;6.972;2022-09-03T11:59:37;100310.91;;;26.88;48.03
11710;BME280;5911;51.036;6.972;2022-09-03T12:02:14;100307.56;;;27.54;46.04
11710;BME280;5911;51.036;6.972;2022-09-03T12:04:56;100312.38;;;28.14;44.56
11710;BME280;5911;51.036;6.972;2022-09-03T12:10:28;100316.84;;;28.97;42.87
11710;BME280;5911;51.036;6.972;2022-09-03T12:13:10;100317.59;;;29.15;42.19
11710;BME280;5911;51.036;6.972;2022-09-03T12:16:03;100316.16;;;29.34;41.53
11710;BME280;5911;51.036;6.972;2022-09-03T12:18:35;100323.56;;;29.65;41.57
11710;BME280;5911;51.036;6.972;2022-09-03T12:21:07;100319.41;;;29.85;40.56
11710;BME280;5911;51.036;6.972;2022-09-03T12:23:40;100300.34;;;29.85;40.65
11710;BME280;5911;51.036;6.972;2022-09-03T12:26:11;100316.13;;;30.15;39.88
11710;BME280;5911;51.036;6.972;2022-09-03T12:28:42;100321.66;;;30.30;39.91
11710;BME280;5911;51.036;6.972;2022-09-03T12:31:16;100320.06;;;30.34;39.21
11710;BME280;5911;51.036;6.972;2022-09-03T12:33:49;100316.91;;;30.52;39.22
11710;BME280;5911;51.036;6.972;2022-09-03T12:36:21;100321.34;;;30.63;39.05
11710;BME280;5911;51.036;6.972;2022-09-03T12:38:49;100300.63;;;30.57;37.84
11710;BME280;5911;51.036;6.972;2022-09-03T12:41:38;100329.34;;;30.80;37.73
11710;BME280;5911;51.036;6.972;2022-09-03T12:44:24;100321.47;;;30.89;37.99
11710;BME280;5911;51.036;6.972;2022-09-03T12:47:03;100320.91;;;30.87;37.08
11710;BME280;5911;51.036;6.972;2022-09-03T12:49:55;100317.63;;;30.80;37.49
11710;BME280;5911;51.036;6.972;2022-09-03T12:52:27;100313.28;;;30.84;37.54
11710;BME280;5911;51.036;6.972;2022-09-03T12:54:59;100320.31;;;30.74;37.04
11710;BME280;5911;51.036;6.972;2022-09-03T12:57:31;100310.16;;;30.60;37.19
11710;BME280;5911;51.036;6.972;2022-09-03T13:00:05;100316.25;;;30.35;37.82
11710;BME280;5911;51.036;6.972;2022-09-03T13:02:37;100289.97;;;30.14;37.92
11710;BME280;5911;51.036;6.972;2022-09-03T13:05:11;100311.34;;;30.32;38.02
11710;BME280;5911;51.036;6.972;2022-09-03T13:07:46;100302.66;;;30.35;38.27
11710;BME280;5911;51.036;6.972;2022-09-03T13:10:24;100306.44;;;30.34;37.83
11710;BME280;5911;51.036;6.972;2022-09-03T13:12:57;100301.13;;;30.12;38.34
11710;BME280;5911;51.036;6.972;2022-09-03T13:15:26;100304.66;;;30.07;38.76
11710;BME280;5911;51.036;6.972;2022-09-03T13:18:07;100288.53;;;29.69;38.52
11710;BME280;5911;51.036;6.972;2022-09-03T13:20:50;100301.41;;;29.47;39.11
11710;BME280;5911;51.036;6.972;2022-09-03T13:23:35;100290.84;;;29.01;39.73
11710;BME280;5911;51.036;6.972;2022-09-03T13:26:12;100290.66;;;28.86;40.27
11710;BME280;5911;51.036;6.972;2022-09-03T13:28:56;100283.75;;;29.00;39.79
11710;BME280;5911;51.036;6.972;2022-09-03T13:31:34;100282.03;;;29.16;39.80
11710;BME280;5911;51.036;6.972;2022-09-03T13:34:05;100279.75;;;29.08;40.14
11710;BME280;5911;51.036;6.972;2022-09-03T13:36:40;100287.06;;;28.81;40.35
11710;BME280;5911;51.036;6.972;2022-09-03T13:39:21;100277.13;;;28.69;40.57
11710;BME280;5911;51.036;6.972;2022-09-03T13:41:56;100275.66;;;28.62;41.23